Maersk Newport — OZDJ2 — position and weather

sailwx.info

Track history (hours):
 
Tides and Currents Weather Stations Pressure Air Temp Water Temp Dewpoint Dewpoint Depression Visibility Wind Speed Wind Dir Waves Ship Positions

Maersk Newport

Last reported at 2018-Jul-19 16:20 UTC. Time now 2018-Jul-19 17:02 UTC.
Position N 41°57' E 010°29'.

Length 210 m; draft 9.3 m.

Type: Ship (hazmat cat A). MMSI: 219223000.

Date/timePositionNaut miles runAvg speedWind from/ knotsBaromVisibWave heightAir tempDewpointWater temp
2018-Jul-19 16:20N 41°57' E 010°29'513.6
2018-Jul-19 15:58N 42°01' E 010°24'613.4
2018-Jul-19 15:31N 42°05' E 010°18'713.0
2018-Jul-19 14:59N 42°09' E 010°11'1413.1
2018-Jul-19 13:53N 42°19' E 009°57'513.2
2018-Jul-19 13:31N 42°23' E 009°52'713.9
2018-Jul-19 13:00N 42°29' E 009°48'714.0
2018-Jul-19 12:30N 42°36' E 009°45'714.1
2018-Jul-19 12:00N 42°42' E 009°41'713.9
2018-Jul-19 11:30N 42°49' E 009°39'714.1
2018-Jul-19 11:00N 42°56' E 009°37'1413.9
2018-Jul-19 10:02N 43°09' E 009°32'014.0
2018-Jul-19 10:00N 43°09' E 009°32'913.9
2018-Jul-19 09:21N 43°18' E 009°28'513.4
2018-Jul-19 09:01N 43°22' E 009°26'713.5
2018-Jul-19 08:30N 43°29' E 009°23'713.4
2018-Jul-19 08:01N 43°35' E 009°20'713.4
2018-Jul-19 07:31N 43°41' E 009°17'713.4
2018-Jul-19 07:01N 43°48' E 009°14'713.6
2018-Jul-19 06:30N 43°54' E 009°11'713.5
2018-Jul-19 06:01N 44°00' E 009°08'713.6
2018-Jul-19 05:31N 44°07' E 009°05'713.6
2018-Jul-19 05:01N 44°13' E 009°01'713.8
2018-Jul-19 04:30N 44°20' E 008°58'4 8.8
2018-Jul-19 04:01N 44°24' E 008°56'1 2.4
2018-Jul-19 03:29N 44°24' E 008°54'0 0.0
2018-Jul-19 02:59N 44°24' E 008°54'0 0.0
2018-Jul-19 02:29N 44°24' E 008°54'0 0.0
2018-Jul-19 02:01N 44°24' E 008°54'0 0.0
2018-Jul-19 01:30N 44°24' E 008°54'0 0.0
2018-Jul-19 01:01N 44°24' E 008°54'0 0.0
2018-Jul-19 00:31N 44°24' E 008°54'0 0.0
2018-Jul-19 00:01N 44°24' E 008°54'0 0.0
2018-Jul-18 23:31N 44°24' E 008°54'0 0.0
2018-Jul-18 23:01N 44°24' E 008°54'0 0.0
2018-Jul-18 22:31N 44°24' E 008°54'0 0.0
2018-Jul-18 22:00N 44°24' E 008°54'0 0.0
2018-Jul-18 21:31N 44°24' E 008°54'0 0.0
2018-Jul-18 21:01N 44°24' E 008°54'0 0.0
2018-Jul-18 20:31N 44°24' E 008°54'0 0.0
2018-Jul-18 20:00N 44°24' E 008°54'0 0.0
2018-Jul-18 19:31N 44°24' E 008°54'0 0.0
2018-Jul-18 19:00N 44°24' E 008°54'0 0.0
2018-Jul-18 18:30N 44°24' E 008°54'0 0.0
2018-Jul-18 18:01N 44°24' E 008°54'0 0.0
2018-Jul-18 17:31N 44°24' E 008°54'0 0.0
2018-Jul-18 17:01N 44°24' E 008°54'0 0.0
2018-Jul-18 16:31N 44°24' E 008°54'0 0.0
2018-Jul-18 16:01N 44°24' E 008°54'0 0.0
2018-Jul-18 15:31N 44°24' E 008°54'0 0.0
2018-Jul-18 15:01N 44°24' E 008°54'1 2.9
2018-Jul-18 14:31N 44°24' E 008°56'4 3.9
2018-Jul-18 13:30N 44°21' E 008°60'1 1.1
2018-Jul-18 13:01N 44°21' E 009°01'0 0.5
2018-Jul-18 12:30N 44°21' E 009°01'0 0.5
2018-Jul-18 12:01N 44°20' E 009°01'1 1.4
2018-Jul-18 11:30N 44°20' E 008°60'6 5.7
2018-Jul-18 10:31N 44°16' E 008°54'3 6.1
2018-Jul-18 10:00N 44°14' E 008°52'3 5.9
2018-Jul-18 09:31N 44°11' E 008°49'3 5.9
2018-Jul-18 09:01N 44°09' E 008°46'3 6.2
2018-Jul-18 08:31N 44°07' E 008°43'713.3
2018-Jul-18 08:00N 44°02' E 008°37'714.9
2018-Jul-18 07:30N 43°57' E 008°30'714.6
2018-Jul-18 07:00N 43°51' E 008°23'714.5
2018-Jul-18 06:30N 43°46' E 008°16'714.4
2018-Jul-18 06:00N 43°42' E 008°08'714.4
2018-Jul-18 05:30N 43°37' E 008°01'714.6
2018-Jul-18 05:00N 43°32' E 007°53'714.7
2018-Jul-18 04:30N 43°27' E 007°45'714.8
2018-Jul-18 04:00N 43°22' E 007°38'714.8
2018-Jul-18 03:30N 43°18' E 007°30'714.7
2018-Jul-18 03:00N 43°13' E 007°22'714.7
2018-Jul-18 02:30N 43°08' E 007°15'714.7
2018-Jul-18 02:00N 43°03' E 007°07'714.5
2018-Jul-18 01:30N 42°59' E 006°59'714.6
2018-Jul-18 01:00N 42°54' E 006°52'714.8
2018-Jul-18 00:30N 42°49' E 006°44'714.8
2018-Jul-18 00:00N 42°44' E 006°36'714.6
2018-Jul-17 23:30N 42°39' E 006°29'714.6
2018-Jul-17 23:00N 42°34' E 006°22'714.7
2018-Jul-17 22:30N 42°30' E 006°14'714.7
2018-Jul-17 22:00N 42°25' E 006°07'714.4
2018-Jul-17 21:30N 42°20' E 005°60'714.8
2018-Jul-17 21:00N 42°15' E 005°52'715.0
2018-Jul-17 20:30N 42°10' E 005°44'715.0
2018-Jul-17 20:00N 42°05' E 005°37'814.9
2018-Jul-17 19:30N 42°00' E 005°29'714.9
2018-Jul-17 19:00N 41°56' E 005°21'814.9
2018-Jul-17 18:30N 41°51' E 005°14'714.9
2018-Jul-17 18:00N 41°46' E 005°07'714.8
2018-Jul-17 17:30N 41°41' E 004°59'714.7
2018-Jul-17 17:00N 41°36' E 004°51'714.6
2018-Jul-17 16:30N 41°31' E 004°44'714.8
2018-Jul-17 16:00N 41°26' E 004°37'714.6
2018-Jul-17 15:30N 41°22' E 004°29'1914.6
2018-Jul-17 14:13N 41°10' E 004°10'314.4
2018-Jul-17 14:00N 41°08' E 004°07'714.2
2018-Jul-17 13:29N 41°03' E 003°59'5014.2
2018-Jul-17 09:58N 40°30' E 003°10'814.4
2018-Jul-17 09:26N 40°25' E 003°02'1514.1
2018-Jul-17 08:21N 40°15' E 002°47'514.0
2018-Jul-17 08:00N 40°12' E 002°42'713.9
2018-Jul-17 07:30N 40°07' E 002°36'7714.1
2018-Jul-17 02:00N 39°16' E 001°20'1014.8
2018-Jul-17 01:19N 39°10' E 001°09'515.0
2018-Jul-17 01:00N 39°07' E 001°05'714.7
2018-Jul-17 00:29N 39°02' E 000°58'1514.7
2018-Jul-16 23:30N 38°52' E 000°43'2815.0
2018-Jul-16 21:36N 38°31' E 000°19'114.6
2018-Jul-16 21:30N 38°30' E 000°18'29014.5
2018-Jul-16 01:29N 36°06' W 004°58'815.8
2018-Jul-16 01:00N 36°05' W 005°07'918.4
2018-Jul-16 00:31N 36°03' W 005°18'713.8
2018-Jul-16 00:00N 36°08' W 005°24'2 3.3
2018-Jul-15 23:28N 36°08' W 005°26'0 0.0
2018-Jul-15 22:58N 36°08' W 005°26'0 0.0
2018-Jul-15 22:13N 36°08' W 005°26'0 0.0
2018-Jul-15 21:58N 36°08' W 005°26'0 0.0
2018-Jul-15 21:25N 36°08' W 005°26'0 0.0
2018-Jul-15 20:55N 36°08' W 005°26'0 0.0
2018-Jul-15 20:25N 36°08' W 005°26'0 0.0
2018-Jul-15 19:55N 36°08' W 005°26'0 0.0
2018-Jul-15 19:28N 36°08' W 005°26'0 0.0
2018-Jul-15 18:58N 36°08' W 005°26'0 0.0
2018-Jul-15 18:28N 36°08' W 005°26'0 0.0
2018-Jul-15 17:49N 36°08' W 005°26'0 0.0
2018-Jul-15 17:28N 36°08' W 005°26'0 0.0
2018-Jul-15 16:58N 36°08' W 005°26'0 0.0
2018-Jul-15 16:28N 36°08' W 005°26'0 0.0
2018-Jul-15 15:58N 36°08' W 005°26'0 0.0
2018-Jul-15 15:28N 36°08' W 005°26'0 0.0
2018-Jul-15 14:58N 36°08' W 005°26'0 0.0
2018-Jul-15 14:25N 36°08' W 005°26'0 0.0
2018-Jul-15 13:58N 36°08' W 005°26'0 0.0
2018-Jul-15 13:28N 36°08' W 005°26'0 0.0
2018-Jul-15 12:55N 36°08' W 005°26'0 0.0
2018-Jul-15 12:28N 36°08' W 005°26'0 0.0
2018-Jul-15 11:55N 36°08' W 005°26'0 0.0
2018-Jul-15 11:28N 36°08' W 005°26'0 0.0
2018-Jul-15 10:55N 36°08' W 005°26'0 0.0
2018-Jul-15 10:28N 36°08' W 005°26'0 0.0
2018-Jul-15 09:58N 36°08' W 005°26'0 0.0
2018-Jul-15 09:28N 36°08' W 005°26'0 0.0
2018-Jul-15 08:58N 36°08' W 005°26'0 0.0
2018-Jul-15 08:28N 36°08' W 005°26'0 0.0
2018-Jul-15 07:52N 36°08' W 005°26'0 0.0
2018-Jul-15 07:28N 36°08' W 005°26'0 0.0
2018-Jul-15 06:58N 36°08' W 005°26'0 0.0
2018-Jul-15 06:25N 36°08' W 005°26'0 0.0
2018-Jul-15 05:55N 36°08' W 005°26'0 0.1
2018-Jul-15 05:30N 36°08' W 005°26'2 3.5
2018-Jul-15 05:00N 36°08' W 005°24'3 6.4
2018-Jul-15 04:30N 36°05' W 005°23'2 4.5
2018-Jul-15 04:00N 36°03' W 005°22'4 9.0
2018-Jul-15 03:30N 36°04' W 005°16'510.4
2018-Jul-15 03:00N 36°07' W 005°11'510.6
2018-Jul-15 02:30N 36°09' W 005°05'7 1.1
2018-Jul-14 19:50N 36°15' W 004°60'  
2018-Jul-12 00:31N 36°16' W 004°56'0 1.0
2018-Jul-12 00:30N 36°16' W 004°56'13 2.1
2018-Jul-11 18:21N 36°07' W 005°08'410.2
2018-Jul-11 18:00N 36°05' W 005°11'510.3
2018-Jul-11 17:31N 36°02' W 005°16'713.1
2018-Jul-11 17:00N 35°59' W 005°24'91 2.0
2018-Jul-09 20:29N 34°55' W 006°44'810.7
2018-Jul-09 19:42N 35°03' W 006°39'  
Track history (hours):
 
Tides and Currents Weather Stations Pressure Air Temp Water Temp Dewpoint Dewpoint Depression Visibility Wind Speed Wind Dir Waves Ship Positions

Maersk Newport

Last reported at 2018-Jul-19 16:20 UTC. Time now 2018-Jul-19 17:02 UTC.
Position N 41°57' E 010°29'.

Length 210 m; draft 9.3 m.

Type: Ship (hazmat cat A). MMSI: 219223000.

Date/timePositionNaut miles runAvg speedWind from/ knotsBaromVisibWave heightAir tempDewpointWater temp
2018-Jul-19 16:20N 41°57' E 010°29'513.6
2018-Jul-19 15:58N 42°01' E 010°24'613.4
2018-Jul-19 15:31N 42°05' E 010°18'713.0
2018-Jul-19 14:59N 42°09' E 010°11'1413.1
2018-Jul-19 13:53N 42°19' E 009°57'513.2
2018-Jul-19 13:31N 42°23' E 009°52'713.9
2018-Jul-19 13:00N 42°29' E 009°48'714.0
2018-Jul-19 12:30N 42°36' E 009°45'714.1
2018-Jul-19 12:00N 42°42' E 009°41'713.9
2018-Jul-19 11:30N 42°49' E 009°39'714.1
2018-Jul-19 11:00N 42°56' E 009°37'1413.9
2018-Jul-19 10:02N 43°09' E 009°32'014.0
2018-Jul-19 10:00N 43°09' E 009°32'913.9
2018-Jul-19 09:21N 43°18' E 009°28'513.4
2018-Jul-19 09:01N 43°22' E 009°26'713.5
2018-Jul-19 08:30N 43°29' E 009°23'713.4
2018-Jul-19 08:01N 43°35' E 009°20'713.4
2018-Jul-19 07:31N 43°41' E 009°17'713.4
2018-Jul-19 07:01N 43°48' E 009°14'713.6
2018-Jul-19 06:30N 43°54' E 009°11'713.5
2018-Jul-19 06:01N 44°00' E 009°08'713.6
2018-Jul-19 05:31N 44°07' E 009°05'713.6
2018-Jul-19 05:01N 44°13' E 009°01'713.8
2018-Jul-19 04:30N 44°20' E 008°58'4 8.8
2018-Jul-19 04:01N 44°24' E 008°56'1 2.4
2018-Jul-19 03:29N 44°24' E 008°54'0 0.0
2018-Jul-19 02:59N 44°24' E 008°54'0 0.0
2018-Jul-19 02:29N 44°24' E 008°54'0 0.0
2018-Jul-19 02:01N 44°24' E 008°54'0 0.0
2018-Jul-19 01:30N 44°24' E 008°54'0 0.0
2018-Jul-19 01:01N 44°24' E 008°54'0 0.0
2018-Jul-19 00:31N 44°24' E 008°54'0 0.0
2018-Jul-19 00:01N 44°24' E 008°54'0 0.0
2018-Jul-18 23:31N 44°24' E 008°54'0 0.0
2018-Jul-18 23:01N 44°24' E 008°54'0 0.0
2018-Jul-18 22:31N 44°24' E 008°54'0 0.0
2018-Jul-18 22:00N 44°24' E 008°54'0 0.0
2018-Jul-18 21:31N 44°24' E 008°54'0 0.0
2018-Jul-18 21:01N 44°24' E 008°54'0 0.0
2018-Jul-18 20:31N 44°24' E 008°54'0 0.0
2018-Jul-18 20:00N 44°24' E 008°54'0 0.0
2018-Jul-18 19:31N 44°24' E 008°54'0 0.0
2018-Jul-18 19:00N 44°24' E 008°54'0 0.0
2018-Jul-18 18:30N 44°24' E 008°54'0 0.0
2018-Jul-18 18:01N 44°24' E 008°54'0 0.0
2018-Jul-18 17:31N 44°24' E 008°54'0 0.0
2018-Jul-18 17:01N 44°24' E 008°54'0 0.0
2018-Jul-18 16:31N 44°24' E 008°54'0 0.0
2018-Jul-18 16:01N 44°24' E 008°54'0 0.0
2018-Jul-18 15:31N 44°24' E 008°54'0 0.0
2018-Jul-18 15:01N 44°24' E 008°54'1 2.9
2018-Jul-18 14:31N 44°24' E 008°56'4 3.9
2018-Jul-18 13:30N 44°21' E 008°60'1 1.1
2018-Jul-18 13:01N 44°21' E 009°01'0 0.5
2018-Jul-18 12:30N 44°21' E 009°01'0 0.5
2018-Jul-18 12:01N 44°20' E 009°01'1 1.4
2018-Jul-18 11:30N 44°20' E 008°60'6 5.7
2018-Jul-18 10:31N 44°16' E 008°54'3 6.1
2018-Jul-18 10:00N 44°14' E 008°52'3 5.9
2018-Jul-18 09:31N 44°11' E 008°49'3 5.9
2018-Jul-18 09:01N 44°09' E 008°46'3 6.2
2018-Jul-18 08:31N 44°07' E 008°43'713.3
2018-Jul-18 08:00N 44°02' E 008°37'714.9
2018-Jul-18 07:30N 43°57' E 008°30'714.6
2018-Jul-18 07:00N 43°51' E 008°23'714.5
2018-Jul-18 06:30N 43°46' E 008°16'714.4
2018-Jul-18 06:00N 43°42' E 008°08'714.4
2018-Jul-18 05:30N 43°37' E 008°01'714.6
2018-Jul-18 05:00N 43°32' E 007°53'714.7
2018-Jul-18 04:30N 43°27' E 007°45'714.8
2018-Jul-18 04:00N 43°22' E 007°38'714.8
2018-Jul-18 03:30N 43°18' E 007°30'714.7
2018-Jul-18 03:00N 43°13' E 007°22'714.7
2018-Jul-18 02:30N 43°08' E 007°15'714.7
2018-Jul-18 02:00N 43°03' E 007°07'714.5
2018-Jul-18 01:30N 42°59' E 006°59'714.6
2018-Jul-18 01:00N 42°54' E 006°52'714.8
2018-Jul-18 00:30N 42°49' E 006°44'714.8
2018-Jul-18 00:00N 42°44' E 006°36'714.6
2018-Jul-17 23:30N 42°39' E 006°29'714.6
2018-Jul-17 23:00N 42°34' E 006°22'714.7
2018-Jul-17 22:30N 42°30' E 006°14'714.7
2018-Jul-17 22:00N 42°25' E 006°07'714.4
2018-Jul-17 21:30N 42°20' E 005°60'714.8
2018-Jul-17 21:00N 42°15' E 005°52'715.0
2018-Jul-17 20:30N 42°10' E 005°44'715.0
2018-Jul-17 20:00N 42°05' E 005°37'814.9
2018-Jul-17 19:30N 42°00' E 005°29'714.9
2018-Jul-17 19:00N 41°56' E 005°21'814.9
2018-Jul-17 18:30N 41°51' E 005°14'714.9
2018-Jul-17 18:00N 41°46' E 005°07'714.8
2018-Jul-17 17:30N 41°41' E 004°59'714.7
2018-Jul-17 17:00N 41°36' E 004°51'714.6
2018-Jul-17 16:30N 41°31' E 004°44'714.8
2018-Jul-17 16:00N 41°26' E 004°37'714.6
2018-Jul-17 15:30N 41°22' E 004°29'1914.6
2018-Jul-17 14:13N 41°10' E 004°10'314.4
2018-Jul-17 14:00N 41°08' E 004°07'714.2
2018-Jul-17 13:29N 41°03' E 003°59'5014.2
2018-Jul-17 09:58N 40°30' E 003°10'814.4
2018-Jul-17 09:26N 40°25' E 003°02'1514.1
2018-Jul-17 08:21N 40°15' E 002°47'514.0
2018-Jul-17 08:00N 40°12' E 002°42'713.9
2018-Jul-17 07:30N 40°07' E 002°36'7714.1
2018-Jul-17 02:00N 39°16' E 001°20'1014.8
2018-Jul-17 01:19N 39°10' E 001°09'515.0
2018-Jul-17 01:00N 39°07' E 001°05'714.7
2018-Jul-17 00:29N 39°02' E 000°58'1514.7
2018-Jul-16 23:30N 38°52' E 000°43'2815.0
2018-Jul-16 21:36N 38°31' E 000°19'114.6
2018-Jul-16 21:30N 38°30' E 000°18'29014.5
2018-Jul-16 01:29N 36°06' W 004°58'815.8
2018-Jul-16 01:00N 36°05' W 005°07'918.4
2018-Jul-16 00:31N 36°03' W 005°18'713.8
2018-Jul-16 00:00N 36°08' W 005°24'2 3.3
2018-Jul-15 23:28N 36°08' W 005°26'0 0.0
2018-Jul-15 22:58N 36°08' W 005°26'0 0.0
2018-Jul-15 22:13N 36°08' W 005°26'0 0.0
2018-Jul-15 21:58N 36°08' W 005°26'0 0.0
2018-Jul-15 21:25N 36°08' W 005°26'0 0.0
2018-Jul-15 20:55N 36°08' W 005°26'0 0.0
2018-Jul-15 20:25N 36°08' W 005°26'0 0.0
2018-Jul-15 19:55N 36°08' W 005°26'0 0.0
2018-Jul-15 19:28N 36°08' W 005°26'0 0.0
2018-Jul-15 18:58N 36°08' W 005°26'0 0.0
2018-Jul-15 18:28N 36°08' W 005°26'0 0.0
2018-Jul-15 17:49N 36°08' W 005°26'0 0.0
2018-Jul-15 17:28N 36°08' W 005°26'0 0.0
2018-Jul-15 16:58N 36°08' W 005°26'0 0.0
2018-Jul-15 16:28N 36°08' W 005°26'0 0.0
2018-Jul-15 15:58N 36°08' W 005°26'0 0.0
2018-Jul-15 15:28N 36°08' W 005°26'0 0.0
2018-Jul-15 14:58N 36°08' W 005°26'0 0.0
2018-Jul-15 14:25N 36°08' W 005°26'0 0.0
2018-Jul-15 13:58N 36°08' W 005°26'0 0.0
2018-Jul-15 13:28N 36°08' W 005°26'0 0.0
2018-Jul-15 12:55N 36°08' W 005°26'0 0.0
2018-Jul-15 12:28N 36°08' W 005°26'0 0.0
2018-Jul-15 11:55N 36°08' W 005°26'0 0.0
2018-Jul-15 11:28N 36°08' W 005°26'0 0.0
2018-Jul-15 10:55N 36°08' W 005°26'0 0.0
2018-Jul-15 10:28N 36°08' W 005°26'0 0.0
2018-Jul-15 09:58N 36°08' W 005°26'0 0.0
2018-Jul-15 09:28N 36°08' W 005°26'0 0.0
2018-Jul-15 08:58N 36°08' W 005°26'0 0.0
2018-Jul-15 08:28N 36°08' W 005°26'0 0.0
2018-Jul-15 07:52N 36°08' W 005°26'0 0.0
2018-Jul-15 07:28N 36°08' W 005°26'0 0.0
2018-Jul-15 06:58N 36°08' W 005°26'0 0.0
2018-Jul-15 06:25N 36°08' W 005°26'0 0.0
2018-Jul-15 05:55N 36°08' W 005°26'0 0.1
2018-Jul-15 05:30N 36°08' W 005°26'2 3.5
2018-Jul-15 05:00N 36°08' W 005°24'3 6.4
2018-Jul-15 04:30N 36°05' W 005°23'2 4.5
2018-Jul-15 04:00N 36°03' W 005°22'4 9.0
2018-Jul-15 03:30N 36°04' W 005°16'510.4
2018-Jul-15 03:00N 36°07' W 005°11'510.6
2018-Jul-15 02:30N 36°09' W 005°05'7 1.1
2018-Jul-14 19:50N 36°15' W 004°60'  
2018-Jul-12 00:31N 36°16' W 004°56'0 1.0
2018-Jul-12 00:30N 36°16' W 004°56'13 2.1
2018-Jul-11 18:21N 36°07' W 005°08'410.2
2018-Jul-11 18:00N 36°05' W 005°11'510.3
2018-Jul-11 17:31N 36°02' W 005°16'713.1
2018-Jul-11 17:00N 35°59' W 005°24'91 2.0
2018-Jul-09 20:29N 34°55' W 006°44'810.7
2018-Jul-09 19:42N 35°03' W 006°39'  

Dump ship's entire track history